Terminal Aerodrome Forecast
Issued by NWS

Current Version | Previous Version | Text Only | Print | Product List | Glossary Off
Versions: 1 2 3 4 5 6 7 8 9 10 11 12 13 14 15

971
FTUS41 KPBZ 171738
TAFMGW
TAF
KMGW 171738Z 1718/1818 07007KT P6SM VCSH OVC040
     FM181200 08010KT P6SM -SHRA OVC020=

USA.gov is the U.S. government's official web portal to all federal, state and local government web resources and services.